createdAt,value
2023-05-06T00:01:03.673Z,97.48
2023-05-06T00:03:32.552Z,97.48
2023-05-06T00:06:02.903Z,97.68
2023-05-06T00:08:32.617Z,97.72
2023-05-06T00:11:00.982Z,97.82
2023-05-06T00:13:29.707Z,97.86
2023-05-06T00:15:58.439Z,97.94
2023-05-06T00:18:27.111Z,97.86
2023-05-06T00:20:56.010Z,97.92
2023-05-06T00:23:24.689Z,97.80
2023-05-06T00:25:55.134Z,97.76
2023-05-06T00:28:23.802Z,97.75
2023-05-06T00:30:52.457Z,97.80
2023-05-06T00:33:21.214Z,97.74
2023-05-06T00:35:50.751Z,97.76
2023-05-06T00:38:19.574Z,97.78
2023-05-06T00:40:48.298Z,97.71
2023-05-06T00:43:18.133Z,97.78
2023-05-06T00:45:46.918Z,97.85
2023-05-06T00:48:17.296Z,97.83
2023-05-06T00:50:46.397Z,97.80
2023-05-06T00:53:15.073Z,98.01
2023-05-06T00:55:44.674Z,98.08
2023-05-06T00:58:13.968Z,98.10
2023-05-06T01:00:44.551Z,98.20
2023-05-06T01:03:13.495Z,98.27
2023-05-06T01:05:52.656Z,98.50
2023-05-06T01:08:28.790Z,98.63
2023-05-06T01:11:03.360Z,98.54
2023-05-06T01:13:39.998Z,98.63
2023-05-06T01:16:11.299Z,98.76
2023-05-06T01:18:40.968Z,98.69
2023-05-06T01:21:10.341Z,98.79
2023-05-06T01:23:58.057Z,98.96
2023-05-06T01:26:27.255Z,98.82
2023-05-06T01:28:57.082Z,98.89
2023-05-06T01:31:35.369Z,99.03
2023-05-06T01:34:16.238Z,98.95
2023-05-06T01:36:57.942Z,98.72
2023-05-06T01:39:30.991Z,98.77
2023-05-06T01:42:01.990Z,98.81
2023-05-06T01:44:35.023Z,99.07
2023-05-06T01:47:04.733Z,98.95
2023-05-06T01:49:33.867Z,99.14
2023-05-06T01:52:03.818Z,99.13
2023-05-06T01:54:33.817Z,99.27
2023-05-06T01:57:03.794Z,99.07
2023-05-06T01:59:32.505Z,98.99
2023-05-06T02:02:01.321Z,98.96
2023-05-06T02:04:29.790Z,99.21
2023-05-06T02:06:58.563Z,99.20
2023-05-06T02:09:27.238Z,99.34
2023-05-06T02:12:01.713Z,99.33
2023-05-06T02:14:30.470Z,99.45
2023-05-06T02:17:04.854Z,99.31
2023-05-06T02:19:33.612Z,99.16
2023-05-06T02:22:02.438Z,99.17
2023-05-06T02:24:31.207Z,98.99
2023-05-06T02:27:02.275Z,99.02
2023-05-06T02:29:31.566Z,99.06
2023-05-06T02:32:00.239Z,98.94
2023-05-06T02:34:28.690Z,99.01
2023-05-06T02:36:57.395Z,98.91
2023-05-06T02:39:26.066Z,99.00
2023-05-06T02:41:54.801Z,98.77
2023-05-06T02:44:24.617Z,99.27
2023-05-06T02:46:53.344Z,99.06
2023-05-06T02:49:22.063Z,99.12
2023-05-06T02:51:50.420Z,99.06
2023-05-06T02:54:19.125Z,99.13
2023-05-06T02:56:47.869Z,99.11
2023-05-06T02:59:17.374Z,99.29
2023-05-06T03:01:47.381Z,99.26
2023-05-06T03:04:16.271Z,99.21
2023-05-06T03:06:44.924Z,99.48
2023-05-06T03:09:13.381Z,99.51
2023-05-06T03:11:42.083Z,99.70
2023-05-06T03:14:10.996Z,99.78
2023-05-06T03:16:39.698Z,99.73
2023-05-06T03:19:10.210Z,99.65
2023-05-06T03:21:38.960Z,99.71
2023-05-06T03:24:08.132Z,100.00
2023-05-06T03:26:37.617Z,99.95
2023-05-06T03:29:06.872Z,100.00
2023-05-06T03:31:36.599Z,100.00
2023-05-06T03:34:05.325Z,100.00
2023-05-06T03:36:36.603Z,100.00
2023-05-06T03:39:05.298Z,99.94
2023-05-06T03:41:35.976Z,99.92
2023-05-06T03:44:04.860Z,100.00
2023-05-06T03:46:33.636Z,100.00
2023-05-06T03:49:02.844Z,99.96
2023-05-06T03:51:31.801Z,99.80
2023-05-06T03:54:01.726Z,100.00
2023-05-06T03:56:30.726Z,100.00
2023-05-06T03:59:00.460Z,99.91
2023-05-06T04:01:30.201Z,100.00
2023-05-06T04:03:58.955Z,100.00
2023-05-06T04:06:29.080Z,100.00
2023-05-06T04:08:57.921Z,100.00
2023-05-06T04:11:29.726Z,100.00
2023-05-06T04:13:59.606Z,100.00
2023-05-06T04:16:28.398Z,100.00
2023-05-06T04:18:57.466Z,100.00
2023-05-06T04:21:26.273Z,100.00
2023-05-06T04:24:00.541Z,99.95
2023-05-06T04:26:36.651Z,100.00
2023-05-06T04:29:06.968Z,100.00
2023-05-06T04:31:40.856Z,100.00
2023-05-06T04:34:12.341Z,100.00
2023-05-06T04:36:41.909Z,100.00
2023-05-06T04:39:21.728Z,100.00
2023-05-06T04:41:52.617Z,100.00
2023-05-06T04:44:28.915Z,100.00
2023-05-06T04:46:57.726Z,100.00
2023-05-06T04:49:26.437Z,100.00
2023-05-06T04:51:57.992Z,100.00
2023-05-06T04:54:27.448Z,100.00
2023-05-06T04:56:57.244Z,100.00
2023-05-06T04:59:26.178Z,100.00
2023-05-06T05:01:55.441Z,100.00
2023-05-06T05:04:24.240Z,100.00
2023-05-06T05:06:53.380Z,100.00
2023-05-06T05:09:22.242Z,100.00
2023-05-06T05:11:51.694Z,100.00
2023-05-06T05:14:22.430Z,100.00
2023-05-06T05:16:51.734Z,100.00
2023-05-06T05:19:21.299Z,100.00
2023-05-06T05:21:50.221Z,100.00
2023-05-06T05:24:19.560Z,100.00
2023-05-06T05:26:48.268Z,100.00
2023-05-06T05:29:18.767Z,100.00
2023-05-06T05:31:50.341Z,100.00
2023-05-06T05:34:19.927Z,100.00
2023-05-06T05:36:48.985Z,100.00
2023-05-06T05:39:17.859Z,100.00
2023-05-06T05:41:48.569Z,100.00
2023-05-06T05:44:17.737Z,100.00
2023-05-06T05:46:46.917Z,100.00
2023-05-06T05:49:19.690Z,100.00
2023-05-06T05:51:50.278Z,100.00
2023-05-06T05:54:20.231Z,100.00
2023-05-06T05:56:50.411Z,100.00
2023-05-06T05:59:19.109Z,100.00
2023-05-06T06:01:50.045Z,100.00
2023-05-06T06:04:19.876Z,100.00
2023-05-06T06:06:48.671Z,100.00
2023-05-06T06:09:17.934Z,100.00
2023-05-06T06:11:47.275Z,100.00
2023-05-06T06:14:16.021Z,100.00
2023-05-06T06:16:44.964Z,100.00
2023-05-06T06:19:14.782Z,100.00
2023-05-06T06:21:45.589Z,100.00
2023-05-06T06:24:15.058Z,100.00
2023-05-06T06:26:43.737Z,100.00
2023-05-06T06:29:12.545Z,100.00
2023-05-06T06:31:41.228Z,100.00
2023-05-06T06:34:12.473Z,100.00
2023-05-06T06:36:45.030Z,100.00
2023-05-06T06:39:14.895Z,100.00
2023-05-06T06:41:43.652Z,100.00
2023-05-06T06:44:12.376Z,100.00
2023-05-06T06:46:41.604Z,100.00
2023-05-06T06:49:10.408Z,100.00
2023-05-06T06:51:39.080Z,100.00
2023-05-06T06:54:07.834Z,100.00
2023-05-06T06:56:37.569Z,100.00
2023-05-06T06:59:06.376Z,99.93
2023-05-06T07:01:35.209Z,99.95
2023-05-06T07:04:05.978Z,99.24
2023-05-06T07:06:36.342Z,99.03
2023-05-06T07:09:05.129Z,98.74
2023-05-06T07:11:33.831Z,98.07
2023-05-06T07:14:03.596Z,97.03
2023-05-06T07:16:32.374Z,97.21
2023-05-06T07:19:01.566Z,96.98
2023-05-06T07:21:32.228Z,97.00
2023-05-06T07:24:01.151Z,96.34
2023-05-06T07:26:29.598Z,95.08
2023-05-06T07:28:58.306Z,94.89
2023-05-06T07:31:28.101Z,93.55
2023-05-06T07:33:58.352Z,92.38
2023-05-06T07:36:28.675Z,92.19
2023-05-06T07:38:57.381Z,92.04
2023-05-06T07:41:26.175Z,91.36
2023-05-06T07:43:54.856Z,90.97
2023-05-06T07:46:23.822Z,90.62
2023-05-06T07:48:53.622Z,90.40
2023-05-06T07:51:22.579Z,89.82
2023-05-06T07:53:51.251Z,89.15
2023-05-06T07:56:19.991Z,88.39
2023-05-06T07:58:49.267Z,88.01
2023-05-06T08:01:17.994Z,87.74
2023-05-06T08:03:46.795Z,87.54
2023-05-06T08:06:16.642Z,87.34
2023-05-06T08:08:46.486Z,86.76
2023-05-06T08:11:16.110Z,84.49
2023-05-06T08:13:46.081Z,83.15
2023-05-06T08:16:14.663Z,81.67
2023-05-06T08:18:43.493Z,80.66
2023-05-06T08:21:12.224Z,79.82
2023-05-06T08:23:41.993Z,78.67
2023-05-06T08:26:11.013Z,77.73
2023-05-06T08:28:39.693Z,77.11
2023-05-06T08:31:08.037Z,76.09
2023-05-06T08:33:36.791Z,75.25
2023-05-06T08:36:05.737Z,74.93
2023-05-06T08:38:34.396Z,74.14
2023-05-06T08:41:10.036Z,73.66
2023-05-06T08:43:42.581Z,72.92
2023-05-06T08:46:11.907Z,71.65
2023-05-06T08:48:40.667Z,70.62
2023-05-06T08:51:10.254Z,69.71
2023-05-06T08:53:43.763Z,69.14
2023-05-06T08:56:14.673Z,67.95
2023-05-06T08:58:46.936Z,66.82
2023-05-06T09:01:16.484Z,65.90
2023-05-06T09:03:45.247Z,64.78
2023-05-06T09:06:13.938Z,63.94
2023-05-06T09:08:42.678Z,63.34
2023-05-06T09:11:26.392Z,64.57
2023-05-06T09:14:11.941Z,64.50
2023-05-06T09:16:42.759Z,63.79
2023-05-06T09:19:11.893Z,64.45
2023-05-06T09:21:43.951Z,64.88
2023-05-06T09:24:14.527Z,62.98
2023-05-06T09:26:46.156Z,60.71
2023-05-06T09:29:14.752Z,59.40
2023-05-06T09:31:45.434Z,58.58
2023-05-06T09:34:15.428Z,57.43
2023-05-06T09:36:44.354Z,57.00
2023-05-06T09:39:13.090Z,56.84
2023-05-06T09:41:43.522Z,56.34
2023-05-06T09:44:13.224Z,55.57
2023-05-06T09:46:41.984Z,54.67
2023-05-06T09:49:11.030Z,53.74
2023-05-06T09:51:41.462Z,53.10
2023-05-06T09:54:10.779Z,52.14
2023-05-06T09:56:39.924Z,52.18
2023-05-06T09:59:11.175Z,51.43
2023-05-06T10:01:41.242Z,51.46
2023-05-06T10:04:10.858Z,50.70
2023-05-06T10:06:41.925Z,49.84
2023-05-06T10:09:11.269Z,49.67
2023-05-06T10:11:40.800Z,49.54
2023-05-06T10:14:11.793Z,49.77
2023-05-06T10:16:41.526Z,50.29
2023-05-06T10:19:10.289Z,50.61
2023-05-06T10:21:46.249Z,50.73
2023-05-06T10:24:19.517Z,49.10
2023-05-06T10:26:48.209Z,47.95
2023-05-06T10:29:19.794Z,47.15
2023-05-06T10:31:58.139Z,46.63
2023-05-06T10:34:27.036Z,46.61
2023-05-06T10:36:59.240Z,46.46
2023-05-06T10:39:28.457Z,46.89
2023-05-06T10:41:57.681Z,46.85
2023-05-06T10:45:03.500Z,45.94
2023-05-06T10:48:09.637Z,45.23
2023-05-06T10:50:38.331Z,44.47
2023-05-06T10:53:06.738Z,44.10
2023-05-06T10:55:37.687Z,43.74
2023-05-06T10:58:16.343Z,42.95
2023-05-06T11:00:55.551Z,42.66
2023-05-06T11:03:25.246Z,41.80
2023-05-06T11:05:54.311Z,41.71
2023-05-06T11:08:25.026Z,41.34
2023-05-06T11:10:54.101Z,40.47
2023-05-06T11:13:26.282Z,40.34
2023-05-06T11:15:57.080Z,39.73
2023-05-06T11:18:45.018Z,38.90
2023-05-06T11:21:41.554Z,39.36
2023-05-06T11:24:15.250Z,38.86
2023-05-06T11:26:44.595Z,38.75
2023-05-06T11:29:13.361Z,39.35
2023-05-06T11:31:45.366Z,39.15
2023-05-06T11:34:22.188Z,38.89
2023-05-06T11:37:03.730Z,38.48
2023-05-06T11:39:39.752Z,37.82
2023-05-06T11:42:09.659Z,37.56
2023-05-06T11:44:40.056Z,37.47
2023-05-06T11:47:10.490Z,37.58
2023-05-06T11:49:41.606Z,37.21
2023-05-06T11:52:11.682Z,36.96
2023-05-06T11:54:42.074Z,36.80
2023-05-06T11:57:10.835Z,36.41
2023-05-06T11:59:41.249Z,36.08
2023-05-06T12:02:15.549Z,35.93
2023-05-06T12:04:46.284Z,35.18
2023-05-06T12:07:17.093Z,35.37
2023-05-06T12:09:49.459Z,35.54
2023-05-06T12:12:22.163Z,35.61
2023-05-06T12:14:53.296Z,35.56
2023-05-06T12:17:23.695Z,35.18
2023-05-06T12:19:52.186Z,35.26
2023-05-06T12:22:22.681Z,35.15
2023-05-06T12:24:51.528Z,35.24
2023-05-06T12:27:33.463Z,34.73
2023-05-06T12:30:04.529Z,34.53
2023-05-06T12:32:34.711Z,34.40
2023-05-06T12:35:07.346Z,34.42
2023-05-06T12:37:36.205Z,33.76
2023-05-06T12:40:17.090Z,33.61
2023-05-06T12:42:47.743Z,33.88
2023-05-06T12:45:16.530Z,33.98
2023-05-06T12:47:55.954Z,33.88
2023-05-06T12:50:36.368Z,34.11
2023-05-06T12:53:05.681Z,33.19
2023-05-06T12:55:34.776Z,33.31
2023-05-06T12:58:03.957Z,33.49
2023-05-06T13:00:32.639Z,33.99
2023-05-06T13:03:02.470Z,34.02
2023-05-06T13:05:31.409Z,33.73
2023-05-06T13:08:00.061Z,33.65
2023-05-06T13:10:28.884Z,33.52
2023-05-06T13:12:57.629Z,33.23
2023-05-06T13:15:27.015Z,33.00
2023-05-06T13:17:57.130Z,33.29
2023-05-06T13:20:27.013Z,33.36
2023-05-06T13:22:55.530Z,33.20
2023-05-06T13:25:24.264Z,33.17
2023-05-06T13:27:54.019Z,32.58
2023-05-06T13:30:22.487Z,32.76
2023-05-06T13:32:51.238Z,32.65
2023-05-06T13:35:19.993Z,32.57
2023-05-06T13:37:49.688Z,32.19
2023-05-06T13:40:18.283Z,32.43
2023-05-06T13:42:46.641Z,31.86
2023-05-06T13:45:15.669Z,32.09
2023-05-06T13:47:44.379Z,31.98
2023-05-06T13:50:13.198Z,32.01
2023-05-06T13:52:41.935Z,31.76
2023-05-06T13:55:12.106Z,31.77
2023-05-06T13:57:40.800Z,31.69
2023-05-06T14:00:11.431Z,31.83
2023-05-06T14:02:40.559Z,31.29
2023-05-06T14:05:09.800Z,31.29
2023-05-06T14:07:40.456Z,31.02
2023-05-06T14:10:11.922Z,31.15
2023-05-06T14:12:40.967Z,31.40
2023-05-06T14:15:10.980Z,32.25
2023-05-06T14:17:39.957Z,32.56
2023-05-06T14:20:09.973Z,32.36
2023-05-06T14:22:41.418Z,32.61
2023-05-06T14:25:12.137Z,32.77
2023-05-06T14:27:41.267Z,32.42
2023-05-06T14:30:10.682Z,32.89
2023-05-06T14:32:39.513Z,32.86
2023-05-06T14:35:10.172Z,31.99
2023-05-06T14:37:39.045Z,32.18
2023-05-06T14:40:10.008Z,31.91
2023-05-06T14:42:39.885Z,30.97
2023-05-06T14:45:10.022Z,31.44
2023-05-06T14:47:39.681Z,30.99
2023-05-06T14:50:10.600Z,31.07
2023-05-06T14:52:40.204Z,31.35
2023-05-06T14:55:11.090Z,31.21
2023-05-06T14:57:41.147Z,31.12
2023-05-06T15:00:14.656Z,31.03
2023-05-06T15:02:43.247Z,30.88
2023-05-06T15:05:13.056Z,30.99
2023-05-06T15:07:42.494Z,30.74
2023-05-06T15:10:11.660Z,30.70
2023-05-06T15:12:41.486Z,30.53
2023-05-06T15:15:11.110Z,30.50
2023-05-06T15:17:41.646Z,30.00
2023-05-06T15:20:11.544Z,29.73
2023-05-06T15:22:40.265Z,30.16
2023-05-06T15:25:16.677Z,29.99
2023-05-06T15:27:52.470Z,29.04
2023-05-06T15:30:21.374Z,28.94
2023-05-06T15:32:50.067Z,28.93
2023-05-06T15:35:18.789Z,29.55
2023-05-06T15:37:47.424Z,29.81
2023-05-06T15:40:15.853Z,31.01
2023-05-06T15:42:44.750Z,31.49
2023-05-06T15:45:14.703Z,32.68
2023-05-06T15:47:43.368Z,32.60
2023-05-06T15:50:21.310Z,33.25
2023-05-06T15:53:01.049Z,33.58
2023-05-06T15:55:30.004Z,34.00
2023-05-06T15:58:00.776Z,34.16
2023-05-06T16:00:30.954Z,34.33
2023-05-06T16:02:59.723Z,34.34
2023-05-06T16:05:28.486Z,34.59
2023-05-06T16:07:57.263Z,34.51
2023-05-06T16:10:25.961Z,34.58
2023-05-06T16:12:54.755Z,34.79
2023-05-06T16:15:23.586Z,35.13
2023-05-06T16:17:53.340Z,35.15
2023-05-06T16:20:22.151Z,35.11
2023-05-06T16:22:51.379Z,35.39
2023-05-06T16:25:20.118Z,35.43
2023-05-06T16:27:49.345Z,35.79
2023-05-06T16:30:18.403Z,35.81
2023-05-06T16:32:47.130Z,36.29
2023-05-06T16:35:18.297Z,36.39
2023-05-06T16:37:47.001Z,36.39
2023-05-06T16:40:20.849Z,36.49
2023-05-06T16:42:50.076Z,36.64
2023-05-06T16:45:19.178Z,36.95
2023-05-06T16:47:48.293Z,37.16
2023-05-06T16:50:18.340Z,37.27
2023-05-06T16:52:47.631Z,36.90
2023-05-06T16:55:16.221Z,36.40
2023-05-06T16:57:44.564Z,36.34
2023-05-06T17:00:15.414Z,36.18
2023-05-06T17:02:44.270Z,36.69
2023-05-06T17:05:13.009Z,36.84
2023-05-06T17:07:42.825Z,37.52
2023-05-06T17:10:12.211Z,37.81
2023-05-06T17:12:41.669Z,38.09
2023-05-06T17:15:11.247Z,38.26
2023-05-06T17:17:40.786Z,38.27
2023-05-06T17:20:10.782Z,38.66
2023-05-06T17:22:39.377Z,38.45
2023-05-06T17:25:10.521Z,38.96
2023-05-06T17:27:38.950Z,39.06
2023-05-06T17:30:10.520Z,39.59
2023-05-06T17:32:39.391Z,39.36
2023-05-06T17:35:08.865Z,39.96
2023-05-06T17:37:37.813Z,39.98
2023-05-06T17:40:09.537Z,40.10
2023-05-06T17:42:38.280Z,40.46
2023-05-06T17:45:08.123Z,40.89
2023-05-06T17:47:37.001Z,40.95
2023-05-06T17:50:06.497Z,40.76
2023-05-06T17:52:35.298Z,41.06
2023-05-06T17:55:18.974Z,41.31
2023-05-06T17:57:49.178Z,41.67
2023-05-06T18:00:18.497Z,41.62
2023-05-06T18:02:47.202Z,42.01
2023-05-06T18:05:16.096Z,41.85
2023-05-06T18:07:44.955Z,42.29
2023-05-06T18:10:14.148Z,42.16
2023-05-06T18:12:45.234Z,42.63
2023-05-06T18:15:15.534Z,42.60
2023-05-06T18:17:44.338Z,42.79
2023-05-06T18:20:14.120Z,42.60
2023-05-06T18:22:43.078Z,43.04
2023-05-06T18:25:12.070Z,43.19
2023-05-06T18:27:40.937Z,43.04
2023-05-06T18:30:10.100Z,43.44
2023-05-06T18:32:39.868Z,43.19
2023-05-06T18:35:10.982Z,43.17
2023-05-06T18:37:40.058Z,43.71
2023-05-06T18:40:10.009Z,43.38
2023-05-06T18:42:38.742Z,43.65
2023-05-06T18:45:09.042Z,43.62
2023-05-06T18:47:40.190Z,43.74
2023-05-06T18:50:10.175Z,43.85
2023-05-06T18:52:38.829Z,44.25
2023-05-06T18:55:09.008Z,44.08
2023-05-06T18:57:37.921Z,44.34
2023-05-06T19:00:08.306Z,44.63
2023-05-06T19:02:37.885Z,44.95
2023-05-06T19:05:09.445Z,44.69
2023-05-06T19:07:38.259Z,45.27
2023-05-06T19:10:08.353Z,45.31
2023-05-06T19:12:36.764Z,45.37
2023-05-06T19:15:06.252Z,45.76
2023-05-06T19:17:35.030Z,45.96
2023-05-06T19:20:05.144Z,46.15
2023-05-06T19:22:34.916Z,46.33
2023-05-06T19:25:03.498Z,46.68
2023-05-06T19:27:32.278Z,46.60
2023-05-06T19:30:00.927Z,47.08
2023-05-06T19:32:29.683Z,47.18
2023-05-06T19:34:59.038Z,47.38
2023-05-06T19:37:30.317Z,47.72
2023-05-06T19:40:00.275Z,47.78
2023-05-06T19:42:29.055Z,47.96
2023-05-06T19:44:57.850Z,48.18
2023-05-06T19:47:27.300Z,48.41
2023-05-06T19:49:56.032Z,48.57
2023-05-06T19:52:25.280Z,48.66
2023-05-06T19:54:54.439Z,48.97
2023-05-06T19:57:24.226Z,49.08
2023-05-06T19:59:52.582Z,49.18
2023-05-06T20:02:21.431Z,49.28
2023-05-06T20:04:50.644Z,49.43
2023-05-06T20:07:20.982Z,49.66
2023-05-06T20:09:55.099Z,49.81
2023-05-06T20:12:27.301Z,50.07
2023-05-06T20:14:56.262Z,50.26
2023-05-06T20:17:24.829Z,50.37
2023-05-06T20:19:57.186Z,50.71
2023-05-06T20:22:25.992Z,50.83
2023-05-06T20:25:07.972Z,50.74
2023-05-06T20:27:37.985Z,51.08
2023-05-06T20:30:09.611Z,51.18
2023-05-06T20:32:38.618Z,51.61
2023-05-06T20:35:08.840Z,51.54
2023-05-06T20:37:38.144Z,51.39
2023-05-06T20:40:09.634Z,51.74
2023-05-06T20:42:39.720Z,51.83
2023-05-06T20:45:09.850Z,52.02
2023-05-06T20:47:38.817Z,52.10
2023-05-06T20:50:08.185Z,52.23
2023-05-06T20:52:40.902Z,52.20
2023-05-06T20:55:12.949Z,52.42
2023-05-06T20:57:46.259Z,52.52
2023-05-06T21:00:15.578Z,52.73
2023-05-06T21:02:44.107Z,52.76
2023-05-06T21:05:13.158Z,53.04
2023-05-06T21:07:41.910Z,53.15
2023-05-06T21:10:11.851Z,53.08
2023-05-06T21:12:40.379Z,53.51
2023-05-06T21:15:11.764Z,53.59
2023-05-06T21:17:40.851Z,53.71
2023-05-06T21:20:10.740Z,53.68
2023-05-06T21:22:39.469Z,53.96
2023-05-06T21:25:09.942Z,54.18
2023-05-06T21:27:38.862Z,54.44
2023-05-06T21:30:10.655Z,54.66
2023-05-06T21:32:39.399Z,54.86
2023-05-06T21:35:08.952Z,54.98
2023-05-06T21:37:37.807Z,55.05
2023-05-06T21:40:07.564Z,55.16
2023-05-06T21:42:35.931Z,55.49
2023-05-06T21:45:04.972Z,55.33
2023-05-06T21:47:34.791Z,55.63
2023-05-06T21:50:03.391Z,55.82
2023-05-06T21:52:32.525Z,55.95
2023-05-06T21:55:01.020Z,56.03
2023-05-06T21:57:29.899Z,56.32
2023-05-06T21:59:58.682Z,56.81
2023-05-06T22:02:27.488Z,56.76
2023-05-06T22:04:57.260Z,57.09
2023-05-06T22:07:26.007Z,56.92
2023-05-06T22:09:54.360Z,57.34
2023-05-06T22:12:23.014Z,57.19
2023-05-06T22:14:51.707Z,57.44
2023-05-06T22:17:20.231Z,57.76
2023-05-06T22:19:48.943Z,57.59
2023-05-06T22:22:19.352Z,57.90
2023-05-06T22:24:48.593Z,57.67
2023-05-06T22:27:17.289Z,58.21
2023-05-06T22:29:45.967Z,58.49
2023-05-06T22:32:14.641Z,58.72
2023-05-06T22:34:43.278Z,58.75
2023-05-06T22:37:12.854Z,59.18
2023-05-06T22:39:42.650Z,58.94
2023-05-06T22:42:11.139Z,59.15
2023-05-06T22:44:39.800Z,59.43
2023-05-06T22:47:08.138Z,59.34
2023-05-06T22:49:36.873Z,59.43
2023-05-06T22:52:05.820Z,59.87
2023-05-06T22:54:34.802Z,59.80
2023-05-06T22:57:04.896Z,60.07
2023-05-06T22:59:33.627Z,60.10
2023-05-06T23:02:02.568Z,60.22
2023-05-06T23:04:31.265Z,60.38
2023-05-06T23:06:59.948Z,60.63
2023-05-06T23:09:28.776Z,60.85
2023-05-06T23:11:57.449Z,60.96
2023-05-06T23:14:27.165Z,61.18
2023-05-06T23:16:55.873Z,60.94
2023-05-06T23:19:24.587Z,61.24
2023-05-06T23:21:53.323Z,61.01
2023-05-06T23:24:21.992Z,61.28
2023-05-06T23:26:51.897Z,61.44
2023-05-06T23:29:20.590Z,61.53
2023-05-06T23:31:50.875Z,61.53
2023-05-06T23:34:19.636Z,62.06
2023-05-06T23:36:48.329Z,62.03
2023-05-06T23:39:17.494Z,61.95
2023-05-06T23:41:46.219Z,62.32
2023-05-06T23:44:15.019Z,62.24
2023-05-06T23:46:43.759Z,62.64
2023-05-06T23:49:13.599Z,62.35
2023-05-06T23:51:42.266Z,62.74
2023-05-06T23:54:10.931Z,62.63
2023-05-06T23:56:40.253Z,63.02
2023-05-06T23:59:09.684Z,62.88
